createdAt,value
2023-01-19T00:00:21.309Z,4.40
2023-01-19T00:02:48.436Z,4.37
2023-01-19T00:05:15.328Z,4.36
2023-01-19T00:07:42.190Z,4.34
2023-01-19T00:10:09.888Z,4.32
2023-01-19T00:12:36.838Z,4.30
2023-01-19T00:15:03.708Z,4.29
2023-01-19T00:17:30.669Z,4.29
2023-01-19T00:19:57.497Z,4.26
2023-01-19T00:22:24.388Z,4.25
2023-01-19T00:24:51.167Z,4.19
2023-01-19T00:27:17.977Z,4.18
2023-01-19T00:29:44.859Z,4.20
2023-01-19T00:32:11.667Z,4.17
2023-01-19T00:34:39.836Z,4.18
2023-01-19T00:37:07.457Z,4.17
2023-01-19T00:39:34.323Z,4.16
2023-01-19T00:42:11.520Z,4.13
2023-01-19T00:44:38.339Z,4.13
2023-01-19T00:47:05.994Z,4.10
2023-01-19T00:49:32.701Z,4.10
2023-01-19T00:51:59.476Z,4.08
2023-01-19T00:54:27.598Z,4.05
2023-01-19T00:56:54.520Z,4.03
2023-01-19T00:59:21.322Z,4.02
2023-01-19T01:01:50.363Z,4.01
2023-01-19T01:04:17.185Z,4.00
2023-01-19T01:06:43.955Z,3.99
2023-01-19T01:09:13.706Z,3.97
2023-01-19T01:11:44.530Z,3.96
2023-01-19T01:14:12.552Z,3.93
2023-01-19T01:16:39.793Z,3.92
2023-01-19T01:19:06.596Z,3.93
2023-01-19T01:21:34.920Z,3.91
2023-01-19T01:24:02.158Z,3.90
2023-01-19T01:26:29.514Z,3.87
2023-01-19T01:28:56.378Z,3.84
2023-01-19T01:31:23.472Z,3.83
2023-01-19T01:33:50.339Z,3.84
2023-01-19T01:36:19.257Z,3.81
2023-01-19T01:38:46.065Z,3.81
2023-01-19T01:41:12.918Z,3.78
2023-01-19T01:43:43.066Z,3.75
2023-01-19T01:46:09.760Z,3.75
2023-01-19T01:48:37.663Z,3.75
2023-01-19T01:51:16.782Z,3.75
2023-01-19T01:53:44.909Z,3.75
2023-01-19T01:56:14.283Z,3.75
2023-01-19T01:58:41.323Z,3.72
2023-01-19T02:01:17.857Z,3.68
2023-01-19T02:03:44.635Z,3.66
2023-01-19T02:06:12.526Z,3.67
2023-01-19T02:08:54.783Z,3.67
2023-01-19T02:11:31.780Z,3.63
2023-01-19T02:13:58.642Z,3.63
2023-01-19T02:16:25.476Z,3.61
2023-01-19T02:18:52.674Z,3.59
2023-01-19T02:21:23.447Z,3.58
2023-01-19T02:23:52.139Z,3.58
2023-01-19T02:26:21.618Z,3.55
2023-01-19T02:28:50.653Z,3.55
2023-01-19T02:31:18.110Z,3.55
2023-01-19T02:33:45.123Z,3.54
2023-01-19T02:36:13.668Z,3.54
2023-01-19T02:38:41.852Z,3.54
2023-01-19T02:41:12.403Z,3.53
2023-01-19T02:43:39.636Z,3.51
2023-01-19T02:46:06.312Z,3.51
2023-01-19T02:48:33.321Z,3.51
2023-01-19T02:51:04.481Z,3.48
2023-01-19T02:53:31.358Z,3.46
2023-01-19T02:56:03.443Z,3.42
2023-01-19T02:58:36.537Z,3.39
2023-01-19T03:01:13.831Z,3.38
2023-01-19T03:03:41.740Z,3.37
2023-01-19T03:06:14.827Z,3.33
2023-01-19T03:08:41.781Z,3.32
2023-01-19T03:11:10.364Z,3.29
2023-01-19T03:13:37.593Z,3.30
2023-01-19T03:16:04.940Z,3.31
2023-01-19T03:18:33.923Z,3.31
2023-01-19T03:21:04.312Z,3.33
2023-01-19T03:23:32.081Z,3.34
2023-01-19T03:26:00.470Z,3.33
2023-01-19T03:28:28.654Z,3.33
2023-01-19T03:30:59.109Z,3.33
2023-01-19T03:33:28.941Z,3.28
2023-01-19T03:35:59.154Z,3.27
2023-01-19T03:38:27.627Z,3.24
2023-01-19T03:40:56.784Z,3.22
2023-01-19T03:43:24.132Z,3.22
2023-01-19T03:45:51.525Z,3.21
2023-01-19T03:48:19.255Z,3.21
2023-01-19T03:50:46.095Z,3.20
2023-01-19T03:53:15.452Z,3.19
2023-01-19T03:55:45.992Z,3.17
2023-01-19T03:58:12.874Z,3.15
2023-01-19T04:00:40.051Z,3.15
2023-01-19T04:03:12.110Z,3.16
2023-01-19T04:05:39.806Z,3.12
2023-01-19T04:08:07.003Z,3.10
2023-01-19T04:10:34.050Z,3.09
2023-01-19T04:13:02.109Z,3.08
2023-01-19T04:15:29.526Z,3.07
2023-01-19T04:17:58.109Z,3.07
2023-01-19T04:20:27.231Z,3.06
2023-01-19T04:22:55.292Z,3.06
2023-01-19T04:25:22.654Z,3.05
2023-01-19T04:27:51.894Z,3.02
2023-01-19T04:30:19.064Z,3.00
2023-01-19T04:32:46.017Z,2.99
2023-01-19T04:35:12.850Z,2.98
2023-01-19T04:37:40.353Z,2.98
2023-01-19T04:40:07.868Z,3.00
2023-01-19T04:42:34.767Z,3.00
2023-01-19T04:45:01.651Z,3.00
2023-01-19T04:47:28.455Z,3.00
2023-01-19T04:49:55.385Z,2.98
2023-01-19T04:52:22.269Z,2.98
2023-01-19T04:54:49.324Z,2.96
2023-01-19T04:57:16.255Z,2.96
2023-01-19T04:59:43.076Z,2.96
2023-01-19T05:02:10.084Z,2.95
2023-01-19T05:04:36.984Z,2.94
2023-01-19T05:07:03.832Z,2.95
2023-01-19T05:09:30.950Z,2.93
2023-01-19T05:11:57.823Z,2.90
2023-01-19T05:14:24.796Z,2.91
2023-01-19T05:16:51.660Z,2.90
2023-01-19T05:19:18.536Z,2.90
2023-01-19T05:21:45.663Z,2.91
2023-01-19T05:24:12.679Z,2.90
2023-01-19T05:26:39.623Z,2.88
2023-01-19T05:29:06.542Z,2.89
2023-01-19T05:31:33.590Z,2.87
2023-01-19T05:34:00.599Z,2.86
2023-01-19T05:36:28.214Z,2.85
2023-01-19T05:38:55.073Z,2.85
2023-01-19T05:41:21.935Z,2.86
2023-01-19T05:43:48.848Z,2.86
2023-01-19T05:46:15.844Z,2.86
2023-01-19T05:48:42.842Z,2.85
2023-01-19T05:51:09.646Z,2.84
2023-01-19T05:53:36.532Z,2.84
2023-01-19T05:56:05.192Z,2.83
2023-01-19T05:58:32.355Z,2.80
2023-01-19T06:01:02.570Z,2.76
2023-01-19T06:03:29.811Z,2.75
2023-01-19T06:05:57.790Z,2.71
2023-01-19T06:08:24.779Z,2.69
2023-01-19T06:10:51.883Z,2.74
2023-01-19T06:13:18.786Z,2.78
2023-01-19T06:15:45.912Z,2.78
2023-01-19T06:18:14.650Z,2.79
2023-01-19T06:20:41.473Z,2.79
2023-01-19T06:23:08.424Z,2.79
2023-01-19T06:25:35.429Z,2.74
2023-01-19T06:28:02.364Z,2.68
2023-01-19T06:30:29.338Z,2.63
2023-01-19T06:32:56.209Z,2.62
2023-01-19T06:35:23.089Z,2.61
2023-01-19T06:37:49.942Z,2.64
2023-01-19T06:40:16.992Z,2.63
2023-01-19T06:42:43.866Z,2.63
2023-01-19T06:45:11.020Z,2.64
2023-01-19T06:47:37.934Z,2.63
2023-01-19T06:50:05.232Z,2.68
2023-01-19T06:52:32.112Z,2.73
2023-01-19T06:54:59.160Z,2.78
2023-01-19T06:57:26.151Z,2.79
2023-01-19T06:59:53.158Z,2.78
2023-01-19T07:02:27.640Z,2.76
2023-01-19T07:04:54.918Z,2.76
2023-01-19T07:07:21.768Z,2.77
2023-01-19T07:09:48.677Z,2.83
2023-01-19T07:12:15.594Z,2.83
2023-01-19T07:14:42.753Z,2.86
2023-01-19T07:17:09.713Z,2.92
2023-01-19T07:19:36.697Z,2.95
2023-01-19T07:22:03.553Z,2.93
2023-01-19T07:24:31.622Z,2.93
2023-01-19T07:26:58.833Z,2.94
2023-01-19T07:29:25.930Z,2.95
2023-01-19T07:31:54.839Z,2.94
2023-01-19T07:34:22.235Z,2.93
2023-01-19T07:36:49.268Z,2.92
2023-01-19T07:39:16.213Z,2.92
2023-01-19T07:41:48.455Z,2.93
2023-01-19T07:44:15.414Z,2.98
2023-01-19T07:46:43.626Z,3.02
2023-01-19T07:49:10.658Z,3.04
2023-01-19T07:51:37.768Z,3.01
2023-01-19T07:54:04.735Z,2.97
2023-01-19T07:56:33.904Z,2.96
2023-01-19T07:59:01.321Z,2.97
2023-01-19T08:01:28.866Z,3.00
2023-01-19T08:03:55.968Z,2.97
2023-01-19T08:06:24.263Z,2.95
2023-01-19T08:08:51.231Z,2.91
2023-01-19T08:11:18.136Z,2.88
2023-01-19T08:13:45.142Z,2.89
2023-01-19T08:16:12.142Z,2.89
2023-01-19T08:18:39.229Z,2.91
2023-01-19T08:21:06.348Z,2.94
2023-01-19T08:23:33.349Z,2.96
2023-01-19T08:26:00.331Z,2.98
2023-01-19T08:28:27.349Z,2.99
2023-01-19T08:30:54.806Z,3.03
2023-01-19T08:33:22.368Z,3.08
2023-01-19T08:35:50.167Z,3.09
2023-01-19T08:38:17.907Z,3.11
2023-01-19T08:40:44.867Z,3.12
2023-01-19T08:43:13.510Z,3.14
2023-01-19T08:45:42.668Z,3.15
2023-01-19T08:48:10.565Z,3.13
2023-01-19T08:50:37.775Z,3.13
2023-01-19T08:53:07.190Z,3.15
2023-01-19T08:55:34.887Z,3.15
2023-01-19T08:58:02.510Z,3.13
2023-01-19T09:00:31.780Z,3.10
2023-01-19T09:02:59.070Z,3.10
2023-01-19T09:05:26.165Z,3.08
2023-01-19T09:07:53.128Z,3.56
2023-01-19T09:10:20.168Z,3.98
2023-01-19T09:12:47.114Z,4.03
2023-01-19T09:15:15.212Z,3.97
2023-01-19T09:17:42.693Z,3.86
2023-01-19T09:20:10.148Z,3.79
2023-01-19T09:22:37.290Z,3.76
2023-01-19T09:25:04.663Z,3.73
2023-01-19T09:27:31.608Z,3.67
2023-01-19T09:29:59.054Z,3.63
2023-01-19T09:32:26.234Z,3.67
2023-01-19T09:34:55.522Z,3.64
2023-01-19T09:37:22.688Z,3.69
2023-01-19T09:39:49.698Z,3.69
2023-01-19T09:42:18.649Z,3.69
2023-01-19T09:44:47.733Z,3.73
2023-01-19T09:47:16.724Z,3.76
2023-01-19T09:49:46.139Z,3.79
2023-01-19T09:52:14.083Z,3.84
2023-01-19T09:54:47.975Z,3.87
2023-01-19T09:57:15.323Z,3.90
2023-01-19T09:59:44.220Z,3.93
2023-01-19T10:02:14.240Z,3.96
2023-01-19T10:04:41.688Z,3.98
2023-01-19T10:07:10.240Z,4.00
2023-01-19T10:09:40.259Z,4.03
2023-01-19T10:12:19.113Z,4.05
2023-01-19T10:14:53.893Z,4.08
2023-01-19T10:17:29.460Z,4.13
2023-01-19T10:19:57.776Z,4.13
2023-01-19T10:22:26.001Z,4.15
2023-01-19T10:24:55.844Z,4.19
2023-01-19T10:27:25.108Z,4.22
2023-01-19T10:29:52.107Z,4.26
2023-01-19T10:32:22.319Z,4.28
2023-01-19T10:34:50.169Z,4.32
2023-01-19T10:37:18.695Z,4.29
2023-01-19T10:39:46.603Z,4.34
2023-01-19T10:42:15.935Z,4.41
2023-01-19T10:44:43.425Z,4.46
2023-01-19T10:47:13.549Z,4.50
2023-01-19T10:49:43.155Z,4.52
2023-01-19T10:52:13.255Z,4.54
2023-01-19T10:54:43.483Z,4.56
2023-01-19T10:57:12.818Z,4.58
2023-01-19T10:59:42.960Z,4.62
2023-01-19T11:02:13.118Z,4.66
2023-01-19T11:04:40.292Z,4.72
2023-01-19T11:07:10.416Z,4.75
2023-01-19T11:09:37.525Z,4.76
2023-01-19T11:12:04.598Z,4.82
2023-01-19T11:14:32.060Z,4.87
2023-01-19T11:16:59.489Z,4.93
2023-01-19T11:19:28.789Z,5.00
2023-01-19T11:22:03.599Z,5.07
2023-01-19T11:24:30.920Z,5.13
2023-01-19T11:27:03.251Z,5.18
2023-01-19T11:29:30.383Z,5.24
2023-01-19T11:32:09.913Z,5.31
2023-01-19T11:34:39.166Z,5.39
2023-01-19T11:37:25.071Z,5.48
2023-01-19T11:39:53.303Z,5.53
2023-01-19T11:42:20.704Z,5.61
2023-01-19T11:44:50.815Z,5.68
2023-01-19T11:47:23.697Z,5.71
2023-01-19T11:49:50.992Z,5.76
2023-01-19T11:52:21.008Z,5.81
2023-01-19T11:54:55.688Z,5.85
2023-01-19T11:57:22.961Z,5.88
2023-01-19T11:59:50.853Z,5.90
2023-01-19T12:02:20.997Z,5.92
2023-01-19T12:04:49.814Z,5.95
2023-01-19T12:07:19.857Z,6.00
2023-01-19T12:09:47.869Z,5.99
2023-01-19T12:12:18.167Z,5.98
2023-01-19T12:14:48.122Z,5.97
2023-01-19T12:17:23.328Z,5.98
2023-01-19T12:19:55.168Z,5.98
2023-01-19T12:22:24.083Z,5.99
2023-01-19T12:24:54.199Z,6.05
2023-01-19T12:27:27.516Z,6.13
2023-01-19T12:29:55.185Z,6.21
2023-01-19T12:32:33.071Z,6.28
2023-01-19T12:35:00.447Z,6.35
2023-01-19T12:37:32.463Z,6.38
2023-01-19T12:40:03.219Z,6.37
2023-01-19T12:42:30.433Z,6.38
2023-01-19T12:45:00.453Z,6.41
2023-01-19T12:47:27.628Z,6.42
2023-01-19T12:49:56.899Z,6.41
2023-01-19T12:52:27.614Z,6.42
2023-01-19T12:54:54.863Z,6.41
2023-01-19T12:57:25.375Z,6.42
2023-01-19T12:59:57.514Z,6.43
2023-01-19T13:02:25.056Z,6.45
2023-01-19T13:04:55.120Z,6.45
2023-01-19T13:07:22.124Z,6.48
2023-01-19T13:09:49.150Z,6.50
2023-01-19T13:12:19.113Z,6.51
2023-01-19T13:14:46.260Z,6.51
2023-01-19T13:17:16.283Z,6.53
2023-01-19T13:19:45.295Z,6.57
2023-01-19T13:22:20.958Z,6.58
2023-01-19T13:24:51.075Z,6.62
2023-01-19T13:27:18.199Z,6.65
2023-01-19T13:29:45.520Z,6.69
2023-01-19T13:32:16.234Z,6.71
2023-01-19T13:34:45.511Z,6.74
2023-01-19T13:37:15.559Z,6.74
2023-01-19T13:39:45.072Z,6.75
2023-01-19T13:42:15.115Z,6.75
2023-01-19T13:44:46.697Z,6.77
2023-01-19T13:47:16.818Z,6.79
2023-01-19T13:49:45.645Z,6.79
2023-01-19T13:52:14.963Z,6.81
2023-01-19T13:54:45.161Z,6.82
2023-01-19T13:57:15.147Z,6.84
2023-01-19T13:59:42.223Z,6.82
2023-01-19T14:02:14.141Z,6.82
2023-01-19T14:04:41.214Z,6.83
2023-01-19T14:07:14.028Z,6.83
2023-01-19T14:09:41.038Z,6.82
2023-01-19T14:12:11.432Z,6.82
2023-01-19T14:14:38.907Z,6.80
2023-01-19T14:17:17.817Z,6.78
2023-01-19T14:19:48.155Z,6.80
2023-01-19T14:22:15.348Z,6.81
2023-01-19T14:24:42.536Z,6.83
2023-01-19T14:27:18.481Z,6.86
2023-01-19T14:29:47.636Z,6.85
2023-01-19T14:32:17.713Z,6.83
2023-01-19T14:34:47.716Z,6.84
2023-01-19T14:37:17.440Z,6.85
2023-01-19T14:39:46.428Z,6.86
2023-01-19T14:42:17.532Z,6.88
2023-01-19T14:44:48.313Z,6.85
2023-01-19T14:47:18.307Z,6.86
2023-01-19T14:49:47.717Z,6.86
2023-01-19T14:52:17.848Z,6.84
2023-01-19T14:54:46.630Z,6.83
2023-01-19T14:57:14.153Z,6.83
2023-01-19T14:59:41.494Z,6.84
2023-01-19T15:02:09.582Z,6.82
2023-01-19T15:04:36.898Z,6.82
2023-01-19T15:07:03.837Z,6.80
2023-01-19T15:09:30.986Z,6.80
2023-01-19T15:11:58.583Z,6.78
2023-01-19T15:14:26.377Z,6.77
2023-01-19T15:16:53.341Z,6.75
2023-01-19T15:19:20.438Z,6.73
2023-01-19T15:21:47.384Z,6.71
2023-01-19T15:24:17.540Z,6.72
2023-01-19T15:26:45.500Z,6.71
2023-01-19T15:29:15.759Z,6.69
2023-01-19T15:31:42.885Z,6.69
2023-01-19T15:34:12.723Z,6.68
2023-01-19T15:36:39.739Z,6.67
2023-01-19T15:39:06.874Z,6.65
2023-01-19T15:41:34.276Z,6.62
2023-01-19T15:44:01.258Z,6.59
2023-01-19T15:46:28.377Z,6.55
2023-01-19T15:48:55.636Z,6.53
2023-01-19T15:51:25.845Z,6.50
2023-01-19T15:53:53.429Z,6.49
2023-01-19T15:56:22.183Z,6.47
2023-01-19T15:58:49.295Z,6.44
2023-01-19T16:01:17.816Z,6.42
2023-01-19T16:03:45.263Z,6.39
2023-01-19T16:06:13.183Z,6.36
2023-01-19T16:08:40.298Z,6.35
2023-01-19T16:11:08.080Z,6.34
2023-01-19T16:13:35.398Z,6.31
2023-01-19T16:16:04.138Z,6.29
2023-01-19T16:18:31.384Z,6.25
2023-01-19T16:20:58.348Z,6.21
2023-01-19T16:23:25.699Z,6.20
2023-01-19T16:25:55.772Z,6.20
2023-01-19T16:28:22.781Z,6.21
2023-01-19T16:30:51.428Z,6.19
2023-01-19T16:33:18.806Z,6.18
2023-01-19T16:35:45.934Z,6.14
2023-01-19T16:38:13.041Z,6.11
2023-01-19T16:40:40.172Z,6.09
2023-01-19T16:43:07.340Z,6.06
2023-01-19T16:45:34.315Z,6.01
2023-01-19T16:48:01.339Z,5.99
2023-01-19T16:50:28.548Z,5.95
2023-01-19T16:52:57.429Z,5.92
2023-01-19T16:55:24.818Z,5.93
2023-01-19T16:57:52.887Z,5.91
2023-01-19T17:00:20.316Z,5.89
2023-01-19T17:02:47.806Z,5.89
2023-01-19T17:05:15.223Z,5.87
2023-01-19T17:07:42.680Z,5.84
2023-01-19T17:10:10.718Z,5.84
2023-01-19T17:12:38.087Z,5.84
2023-01-19T17:15:05.844Z,5.80
2023-01-19T17:17:35.528Z,5.78
2023-01-19T17:20:04.160Z,5.77
2023-01-19T17:22:31.517Z,5.78
2023-01-19T17:24:58.775Z,5.78
2023-01-19T17:27:26.114Z,5.75
2023-01-19T17:29:53.477Z,5.71
2023-01-19T17:32:20.920Z,5.70
2023-01-19T17:34:49.662Z,5.69
2023-01-19T17:37:16.941Z,5.68
2023-01-19T17:39:44.081Z,5.65
2023-01-19T17:42:11.302Z,5.63
2023-01-19T17:44:38.528Z,5.59
2023-01-19T17:47:05.849Z,5.58
2023-01-19T17:49:33.606Z,5.58
2023-01-19T17:52:01.173Z,5.56
2023-01-19T17:54:28.588Z,5.53
2023-01-19T17:56:56.851Z,5.51
2023-01-19T17:59:24.058Z,5.51
2023-01-19T18:01:51.198Z,5.49
2023-01-19T18:04:18.425Z,5.46
2023-01-19T18:06:47.523Z,5.46
2023-01-19T18:09:14.772Z,5.45
2023-01-19T18:11:43.224Z,5.43
2023-01-19T18:14:10.503Z,5.42
2023-01-19T18:16:37.866Z,5.40
2023-01-19T18:19:04.964Z,5.38
2023-01-19T18:21:32.015Z,5.35
2023-01-19T18:24:01.545Z,5.33
2023-01-19T18:26:29.753Z,5.32
2023-01-19T18:28:57.460Z,5.31
2023-01-19T18:31:25.176Z,5.31
2023-01-19T18:33:52.531Z,5.32
2023-01-19T18:36:19.611Z,5.31
2023-01-19T18:38:47.219Z,5.30
2023-01-19T18:41:16.009Z,5.30
2023-01-19T18:43:43.725Z,5.28
2023-01-19T18:46:11.489Z,5.26
2023-01-19T18:48:39.155Z,5.24
2023-01-19T18:51:08.080Z,5.21
2023-01-19T18:53:35.476Z,5.18
2023-01-19T18:56:03.662Z,5.18
2023-01-19T18:58:32.013Z,5.16
2023-01-19T19:00:59.876Z,5.15
2023-01-19T19:03:27.118Z,5.14
2023-01-19T19:05:54.358Z,5.13
2023-01-19T19:08:21.347Z,5.11
2023-01-19T19:10:48.383Z,5.11
2023-01-19T19:13:16.129Z,5.12
2023-01-19T19:15:44.733Z,5.12
2023-01-19T19:18:14.283Z,5.12
2023-01-19T19:20:43.480Z,5.10
2023-01-19T19:23:11.258Z,5.10
2023-01-19T19:25:38.726Z,5.08
2023-01-19T19:28:05.956Z,5.05
2023-01-19T19:30:34.949Z,5.04
2023-01-19T19:33:01.974Z,5.02
2023-01-19T19:35:29.061Z,5.00
2023-01-19T19:37:58.003Z,4.99
2023-01-19T19:40:25.841Z,4.98
2023-01-19T19:42:52.829Z,4.96
2023-01-19T19:45:20.423Z,4.95
2023-01-19T19:47:47.719Z,4.93
2023-01-19T19:50:15.226Z,4.93
2023-01-19T19:52:42.504Z,4.91
2023-01-19T19:55:10.095Z,4.89
2023-01-19T19:57:37.342Z,4.88
2023-01-19T20:00:05.518Z,4.87
2023-01-19T20:02:32.963Z,4.87
2023-01-19T20:05:00.245Z,4.85
2023-01-19T20:07:27.287Z,4.85
2023-01-19T20:09:55.372Z,4.85
2023-01-19T20:12:23.055Z,4.84
2023-01-19T20:14:51.146Z,4.84
2023-01-19T20:17:20.388Z,4.84
2023-01-19T20:19:49.904Z,4.82
2023-01-19T20:22:17.935Z,4.80
2023-01-19T20:24:47.671Z,4.76
2023-01-19T20:27:15.588Z,4.74
2023-01-19T20:29:42.814Z,4.74
2023-01-19T20:32:11.040Z,4.71
2023-01-19T20:34:38.746Z,4.70
2023-01-19T20:37:06.526Z,4.66
2023-01-19T20:39:35.817Z,4.63
2023-01-19T20:42:02.926Z,4.63
2023-01-19T20:44:30.565Z,4.63
2023-01-19T20:46:57.565Z,4.64
2023-01-19T20:49:25.050Z,4.62
2023-01-19T20:51:52.400Z,4.62
2023-01-19T20:54:20.567Z,4.60
2023-01-19T20:56:47.694Z,4.61
2023-01-19T20:59:14.806Z,4.61
2023-01-19T21:01:42.445Z,4.56
2023-01-19T21:04:10.374Z,4.54
2023-01-19T21:06:37.998Z,4.54
2023-01-19T21:09:05.096Z,4.51
2023-01-19T21:11:32.388Z,4.51
2023-01-19T21:13:59.400Z,4.51
2023-01-19T21:16:27.991Z,4.50
2023-01-19T21:18:55.365Z,4.47
2023-01-19T21:21:30.373Z,4.47
2023-01-19T21:23:59.017Z,4.44
2023-01-19T21:26:26.400Z,4.41
2023-01-19T21:28:53.529Z,4.38
2023-01-19T21:31:23.431Z,4.37
2023-01-19T21:33:53.990Z,4.37
2023-01-19T21:36:21.552Z,4.34
2023-01-19T21:38:49.065Z,4.34
2023-01-19T21:41:16.735Z,4.30
2023-01-19T21:43:43.752Z,4.28
2023-01-19T21:46:12.099Z,4.28
2023-01-19T21:48:39.230Z,4.28
2023-01-19T21:51:06.571Z,4.32
2023-01-19T21:53:33.573Z,4.29
2023-01-19T21:56:00.855Z,4.30
2023-01-19T21:58:27.915Z,4.27
2023-01-19T22:00:58.283Z,4.27
2023-01-19T22:03:27.568Z,4.26
2023-01-19T22:05:56.170Z,4.27
2023-01-19T22:08:24.104Z,4.28
2023-01-19T22:10:51.156Z,4.25
2023-01-19T22:13:18.232Z,4.22
2023-01-19T22:15:45.241Z,4.21
2023-01-19T22:18:12.237Z,4.20
2023-01-19T22:20:39.295Z,4.20
2023-01-19T22:23:06.243Z,4.20
2023-01-19T22:25:33.698Z,4.21
2023-01-19T22:28:00.715Z,4.26
2023-01-19T22:30:27.811Z,4.24
2023-01-19T22:32:54.974Z,4.22
2023-01-19T22:35:21.958Z,4.20
2023-01-19T22:37:49.029Z,4.19
2023-01-19T22:40:16.379Z,4.18
2023-01-19T22:42:46.974Z,4.20
2023-01-19T22:45:14.331Z,4.21
2023-01-19T22:47:41.838Z,4.23
2023-01-19T22:50:09.220Z,4.23
2023-01-19T22:52:36.134Z,4.22
2023-01-19T22:55:03.155Z,4.23
2023-01-19T22:57:36.007Z,4.25
2023-01-19T23:00:07.132Z,4.25
2023-01-19T23:02:34.454Z,4.27
2023-01-19T23:05:01.661Z,4.27
2023-01-19T23:07:28.681Z,4.29
2023-01-19T23:09:55.695Z,4.33
2023-01-19T23:12:22.774Z,4.32
2023-01-19T23:14:49.736Z,4.33
2023-01-19T23:17:16.739Z,4.36
2023-01-19T23:19:43.852Z,4.40
2023-01-19T23:22:10.838Z,4.40
2023-01-19T23:24:37.896Z,4.40
2023-01-19T23:27:04.945Z,4.40
2023-01-19T23:29:32.012Z,4.40
2023-01-19T23:31:58.937Z,4.40
2023-01-19T23:34:25.785Z,4.42
2023-01-19T23:36:52.636Z,4.44
2023-01-19T23:39:20.744Z,4.47
2023-01-19T23:41:48.333Z,4.49
2023-01-19T23:44:15.222Z,4.51
2023-01-19T23:46:42.125Z,4.53
2023-01-19T23:49:09.100Z,4.52
2023-01-19T23:51:36.120Z,4.48
2023-01-19T23:54:03.015Z,4.47
2023-01-19T23:56:32.150Z,4.45
2023-01-19T23:59:01.455Z,4.42
